createdAt,value
2023-03-17T00:00:18.912Z,7.78
2023-03-17T00:01:18.898Z,7.72
2023-03-17T00:02:18.894Z,7.77
2023-03-17T00:03:18.851Z,7.66
2023-03-17T00:04:18.832Z,7.71
2023-03-17T00:05:18.784Z,7.71
2023-03-17T00:06:18.770Z,7.81
2023-03-17T00:07:18.734Z,7.78
2023-03-17T00:08:18.711Z,7.66
2023-03-17T00:09:18.696Z,7.49
2023-03-17T00:10:18.663Z,7.60
2023-03-17T00:11:18.633Z,7.74
2023-03-17T00:12:18.616Z,7.72
2023-03-17T00:13:18.584Z,7.67
2023-03-17T00:14:18.561Z,7.71
2023-03-17T00:15:18.538Z,7.67
2023-03-17T00:16:18.596Z,7.60
2023-03-17T00:17:18.481Z,7.66
2023-03-17T00:18:18.462Z,7.77
2023-03-17T00:19:18.430Z,7.67
2023-03-17T00:20:18.414Z,7.77
2023-03-17T00:21:18.378Z,7.90
2023-03-17T00:22:18.362Z,7.85
2023-03-17T00:23:18.334Z,7.78
2023-03-17T00:24:18.315Z,7.75
2023-03-17T00:25:18.276Z,7.63
2023-03-17T00:26:18.260Z,7.63
2023-03-17T00:27:18.230Z,7.69
2023-03-17T00:28:18.220Z,7.72
2023-03-17T00:29:18.178Z,7.71
2023-03-17T00:30:18.161Z,7.79
2023-03-17T00:31:18.201Z,7.71
2023-03-17T00:32:18.116Z,7.67
2023-03-17T00:33:18.105Z,7.78
2023-03-17T00:34:18.056Z,7.84
2023-03-17T00:35:18.031Z,7.71
2023-03-17T00:36:18.021Z,7.59
2023-03-17T00:37:17.976Z,7.63
2023-03-17T00:38:17.960Z,7.52
2023-03-17T00:39:17.928Z,7.59
2023-03-17T00:40:17.914Z,7.63
2023-03-17T00:41:17.878Z,7.69
2023-03-17T00:42:17.855Z,7.74
2023-03-17T00:43:17.830Z,8.02
2023-03-17T00:44:17.825Z,8.10
2023-03-17T00:45:17.779Z,8.11
2023-03-17T00:46:17.798Z,8.10
2023-03-17T00:47:17.731Z,8.11
2023-03-17T00:48:17.727Z,8.08
2023-03-17T00:49:17.678Z,8.17
2023-03-17T00:50:17.651Z,8.12
2023-03-17T00:51:17.628Z,8.15
2023-03-17T00:52:17.608Z,8.14
2023-03-17T00:53:17.575Z,8.08
2023-03-17T00:54:17.556Z,8.04
2023-03-17T00:55:17.526Z,7.97
2023-03-17T00:56:17.515Z,8.03
2023-03-17T00:57:17.485Z,8.08
2023-03-17T00:58:17.451Z,8.00
2023-03-17T00:59:19.298Z,8.00
2023-03-17T01:00:17.407Z,7.99
2023-03-17T01:01:17.389Z,7.97
2023-03-17T01:02:17.380Z,7.90
2023-03-17T01:03:17.326Z,7.89
2023-03-17T01:04:17.310Z,7.90
2023-03-17T01:05:17.303Z,7.84
2023-03-17T01:06:17.251Z,7.85
2023-03-17T01:07:17.234Z,7.84
2023-03-17T01:08:17.204Z,7.85
2023-03-17T01:09:17.180Z,7.82
2023-03-17T01:10:17.151Z,7.81
2023-03-17T01:11:17.126Z,7.78
2023-03-17T01:12:17.102Z,7.71
2023-03-17T01:13:17.078Z,7.72
2023-03-17T01:14:17.060Z,7.72
2023-03-17T01:15:17.048Z,7.72
2023-03-17T01:16:17.162Z,7.75
2023-03-17T01:17:16.978Z,7.72
2023-03-17T01:18:17.031Z,7.69
2023-03-17T01:19:17.126Z,7.71
2023-03-17T01:20:16.912Z,7.75
2023-03-17T01:21:16.889Z,7.58
2023-03-17T01:22:16.862Z,7.63
2023-03-17T01:23:16.863Z,7.62
2023-03-17T01:24:16.799Z,7.55
2023-03-17T01:25:16.776Z,7.72
2023-03-17T01:26:16.749Z,7.55
2023-03-17T01:27:16.718Z,7.71
2023-03-17T01:28:16.717Z,7.75
2023-03-17T01:29:16.674Z,7.58
2023-03-17T01:30:16.660Z,7.75
2023-03-17T01:31:16.642Z,7.58
2023-03-17T01:32:16.611Z,7.59
2023-03-17T01:33:16.572Z,7.52
2023-03-17T01:34:16.630Z,7.62
2023-03-17T01:35:16.552Z,7.66
2023-03-17T01:36:16.504Z,7.72
2023-03-17T01:37:16.479Z,7.69
2023-03-17T01:38:16.463Z,7.72
2023-03-17T01:39:16.429Z,7.71
2023-03-17T01:40:16.409Z,7.67
2023-03-17T01:41:16.372Z,7.81
2023-03-17T01:42:16.349Z,7.79
2023-03-17T01:43:16.329Z,7.79
2023-03-17T01:44:16.300Z,7.87
2023-03-17T01:45:16.284Z,7.75
2023-03-17T01:46:16.269Z,7.71
2023-03-17T01:47:16.248Z,7.62
2023-03-17T01:48:16.207Z,7.79
2023-03-17T01:49:16.174Z,7.81
2023-03-17T01:50:16.148Z,7.85
2023-03-17T01:51:16.125Z,7.94
2023-03-17T01:52:16.117Z,7.96
2023-03-17T01:53:16.069Z,8.00
2023-03-17T01:54:16.049Z,7.99
2023-03-17T01:55:16.022Z,8.00
2023-03-17T01:56:15.997Z,8.04
2023-03-17T01:57:15.972Z,7.99
2023-03-17T01:58:15.965Z,7.90
2023-03-17T01:59:15.924Z,7.89
2023-03-17T02:00:15.899Z,7.90
2023-03-17T02:01:15.909Z,7.90
2023-03-17T02:02:15.850Z,7.78
2023-03-17T02:03:15.826Z,7.67
2023-03-17T02:04:15.826Z,7.60
2023-03-17T02:05:15.785Z,7.35
2023-03-17T02:06:15.753Z,7.35
2023-03-17T02:07:15.718Z,7.26
2023-03-17T02:08:15.698Z,7.26
2023-03-17T02:09:15.675Z,7.37
2023-03-17T02:10:15.646Z,7.41
2023-03-17T02:11:15.618Z,7.56
2023-03-17T02:12:15.630Z,7.66
2023-03-17T02:13:15.577Z,7.75
2023-03-17T02:14:15.546Z,7.71
2023-03-17T02:15:15.543Z,7.72
2023-03-17T02:16:15.529Z,7.66
2023-03-17T02:17:15.477Z,7.62
2023-03-17T02:18:15.458Z,7.71
2023-03-17T02:19:15.454Z,7.63
2023-03-17T02:20:15.400Z,7.74
2023-03-17T02:21:15.367Z,7.78
2023-03-17T02:22:15.349Z,7.77
2023-03-17T02:23:15.318Z,7.85
2023-03-17T02:24:15.298Z,7.89
2023-03-17T02:25:15.277Z,7.75
2023-03-17T02:26:15.251Z,7.81
2023-03-17T02:27:15.222Z,7.75
2023-03-17T02:28:15.215Z,7.74
2023-03-17T02:29:15.166Z,7.82
2023-03-17T02:30:15.164Z,7.71
2023-03-17T02:31:15.154Z,7.69
2023-03-17T02:32:15.096Z,7.62
2023-03-17T02:33:15.072Z,7.69
2023-03-17T02:34:15.047Z,7.52
2023-03-17T02:35:15.046Z,7.47
2023-03-17T02:36:15.085Z,7.41
2023-03-17T02:37:14.963Z,7.49
2023-03-17T02:38:14.950Z,7.40
2023-03-17T02:39:14.923Z,7.37
2023-03-17T02:40:14.917Z,7.32
2023-03-17T02:41:14.901Z,7.19
2023-03-17T02:42:14.850Z,7.22
2023-03-17T02:43:14.820Z,7.02
2023-03-17T02:44:14.819Z,6.83
2023-03-17T02:45:14.771Z,6.83
2023-03-17T02:46:14.782Z,6.81
2023-03-17T02:47:14.721Z,6.95
2023-03-17T02:48:14.696Z,6.94
2023-03-17T02:49:14.673Z,7.09
2023-03-17T02:50:14.663Z,7.27
2023-03-17T02:51:14.616Z,7.24
2023-03-17T02:52:14.613Z,7.41
2023-03-17T02:53:14.594Z,7.44
2023-03-17T02:54:14.550Z,7.34
2023-03-17T02:55:14.516Z,7.32
2023-03-17T02:56:14.496Z,7.34
2023-03-17T02:57:14.468Z,7.22
2023-03-17T02:58:14.447Z,7.31
2023-03-17T02:59:14.432Z,7.24
2023-03-17T03:00:14.438Z,7.26
2023-03-17T03:01:14.412Z,7.17
2023-03-17T03:02:14.407Z,7.20
2023-03-17T03:03:14.314Z,7.09
2023-03-17T03:04:14.298Z,7.07
2023-03-17T03:05:14.276Z,7.05
2023-03-17T03:06:14.252Z,6.97
2023-03-17T03:07:14.224Z,6.80
2023-03-17T03:08:14.250Z,6.65
2023-03-17T03:09:14.173Z,6.47
2023-03-17T03:10:14.144Z,6.47
2023-03-17T03:11:14.131Z,6.35
2023-03-17T03:12:14.091Z,6.35
2023-03-17T03:13:14.102Z,6.38
2023-03-17T03:14:14.042Z,6.56
2023-03-17T03:15:14.016Z,6.63
2023-03-17T03:16:14.015Z,6.86
2023-03-17T03:17:13.971Z,6.94
2023-03-17T03:18:13.958Z,7.02
2023-03-17T03:19:13.927Z,6.99
2023-03-17T03:20:13.888Z,7.04
2023-03-17T03:21:13.868Z,6.95
2023-03-17T03:22:13.832Z,6.87
2023-03-17T03:23:13.817Z,6.94
2023-03-17T03:24:13.804Z,6.83
2023-03-17T03:25:13.765Z,6.83
2023-03-17T03:26:13.736Z,6.72
2023-03-17T03:27:13.722Z,6.62
2023-03-17T03:28:13.692Z,6.63
2023-03-17T03:29:13.676Z,6.51
2023-03-17T03:30:13.636Z,6.47
2023-03-17T03:31:13.700Z,6.44
2023-03-17T03:32:13.588Z,6.46
2023-03-17T03:33:13.564Z,6.38
2023-03-17T03:34:13.532Z,6.32
2023-03-17T03:35:13.509Z,6.47
2023-03-17T03:36:13.487Z,6.54
2023-03-17T03:37:13.461Z,6.56
2023-03-17T03:38:13.444Z,6.50
2023-03-17T03:39:14.530Z,6.56
2023-03-17T03:40:13.390Z,6.59
2023-03-17T03:41:13.356Z,6.65
2023-03-17T03:42:13.338Z,6.54
2023-03-17T03:43:22.440Z,6.56
2023-03-17T03:44:13.277Z,6.53
2023-03-17T03:45:13.268Z,6.61
2023-03-17T03:46:13.239Z,6.62
2023-03-17T03:47:13.200Z,6.69
2023-03-17T03:48:13.171Z,6.68
2023-03-17T03:49:13.156Z,6.77
2023-03-17T03:50:13.158Z,6.71
2023-03-17T03:51:13.106Z,6.61
2023-03-17T03:52:13.076Z,6.47
2023-03-17T03:53:13.077Z,6.47
2023-03-17T03:54:13.043Z,6.63
2023-03-17T03:55:13.007Z,6.71
2023-03-17T03:56:12.998Z,6.83
2023-03-17T03:57:12.949Z,6.83
2023-03-17T03:58:12.922Z,6.86
2023-03-17T03:59:12.901Z,6.77
2023-03-17T04:00:12.861Z,6.81
2023-03-17T04:01:12.844Z,6.89
2023-03-17T04:02:12.813Z,6.80
2023-03-17T04:03:12.820Z,6.81
2023-03-17T04:04:12.780Z,6.89
2023-03-17T04:05:12.754Z,7.04
2023-03-17T04:06:12.713Z,6.91
2023-03-17T04:07:12.705Z,6.80
2023-03-17T04:08:12.700Z,6.80
2023-03-17T04:09:12.680Z,6.76
2023-03-17T04:10:12.613Z,6.84
2023-03-17T04:11:12.598Z,6.97
2023-03-17T04:12:12.565Z,6.94
2023-03-17T04:13:12.540Z,6.86
2023-03-17T04:14:12.508Z,6.77
2023-03-17T04:15:12.485Z,6.86
2023-03-17T04:16:12.517Z,6.94
2023-03-17T04:17:12.437Z,6.87
2023-03-17T04:18:12.406Z,6.95
2023-03-17T04:19:12.521Z,6.97
2023-03-17T04:20:12.358Z,7.02
2023-03-17T04:21:12.333Z,6.87
2023-03-17T04:22:12.303Z,6.90
2023-03-17T04:23:12.283Z,6.87
2023-03-17T04:24:12.264Z,6.94
2023-03-17T04:25:12.266Z,7.01
2023-03-17T04:26:12.201Z,7.01
2023-03-17T04:27:12.186Z,6.97
2023-03-17T04:28:12.209Z,6.94
2023-03-17T04:29:12.132Z,6.91
2023-03-17T04:30:12.148Z,6.91
2023-03-17T04:31:12.204Z,6.91
2023-03-17T04:32:12.082Z,6.94
2023-03-17T04:33:12.059Z,6.86
2023-03-17T04:34:11.997Z,6.89
2023-03-17T04:35:11.978Z,6.97
2023-03-17T04:36:11.973Z,6.97
2023-03-17T04:37:11.930Z,6.97
2023-03-17T04:38:11.907Z,6.98
2023-03-17T04:39:11.876Z,7.05
2023-03-17T04:40:11.848Z,6.99
2023-03-17T04:41:11.828Z,6.90
2023-03-17T04:42:11.792Z,7.01
2023-03-17T04:43:11.789Z,6.94
2023-03-17T04:44:11.747Z,6.94
2023-03-17T04:45:11.733Z,6.84
2023-03-17T04:46:11.771Z,6.80
2023-03-17T04:47:11.690Z,6.84
2023-03-17T04:48:11.645Z,6.79
2023-03-17T04:49:11.623Z,6.83
2023-03-17T04:50:11.600Z,6.95
2023-03-17T04:51:11.952Z,6.94
2023-03-17T04:52:11.553Z,6.97
2023-03-17T04:53:11.526Z,7.01
2023-03-17T04:54:11.492Z,6.90
2023-03-17T04:55:11.473Z,6.83
2023-03-17T04:56:11.444Z,6.76
2023-03-17T04:57:11.427Z,6.79
2023-03-17T04:58:15.452Z,6.66
2023-03-17T04:59:11.372Z,6.62
2023-03-17T05:00:11.343Z,6.61
2023-03-17T05:01:11.370Z,6.54
2023-03-17T05:02:11.308Z,6.48
2023-03-17T05:03:25.797Z,6.56
2023-03-17T05:04:16.707Z,6.51
2023-03-17T05:05:11.220Z,6.61
2023-03-17T05:06:11.195Z,6.56
2023-03-17T05:07:11.166Z,6.63
2023-03-17T05:08:11.144Z,6.61
2023-03-17T05:09:11.118Z,6.59
2023-03-17T05:10:11.086Z,6.59
2023-03-17T05:11:11.072Z,6.58
2023-03-17T05:12:11.049Z,6.62
2023-03-17T05:13:11.015Z,6.69
2023-03-17T05:14:10.981Z,6.69
2023-03-17T05:15:10.958Z,6.59
2023-03-17T05:16:11.059Z,6.63
2023-03-17T05:17:10.910Z,6.50
2023-03-17T05:18:10.878Z,6.47
2023-03-17T05:19:10.859Z,6.50
2023-03-17T05:20:10.855Z,6.47
2023-03-17T05:21:10.822Z,6.46
2023-03-17T05:22:10.774Z,6.47
2023-03-17T05:23:10.763Z,6.48
2023-03-17T05:24:10.729Z,6.51
2023-03-17T05:25:10.711Z,6.61
2023-03-17T05:26:10.678Z,6.59
2023-03-17T05:27:10.654Z,6.65
2023-03-17T05:28:10.625Z,6.53
2023-03-17T05:29:10.614Z,6.48
2023-03-17T05:30:10.584Z,6.54
2023-03-17T05:31:11.199Z,6.54
2023-03-17T05:32:10.532Z,6.56
2023-03-17T05:33:10.510Z,6.59
2023-03-17T05:34:10.476Z,6.69
2023-03-17T05:35:10.449Z,6.72
2023-03-17T05:36:10.426Z,6.69
2023-03-17T05:37:10.404Z,6.71
2023-03-17T05:38:10.370Z,6.76
2023-03-17T05:39:10.350Z,6.66
2023-03-17T05:40:10.317Z,6.63
2023-03-17T05:41:10.297Z,6.68
2023-03-17T05:42:10.290Z,6.80
2023-03-17T05:43:10.254Z,6.76
2023-03-17T05:44:10.238Z,6.66
2023-03-17T05:45:10.189Z,6.61
2023-03-17T05:46:10.212Z,6.63
2023-03-17T05:47:10.141Z,6.51
2023-03-17T05:48:10.123Z,6.18
2023-03-17T05:49:10.103Z,6.06
2023-03-17T05:50:10.058Z,6.01
2023-03-17T05:51:10.046Z,5.98
2023-03-17T05:52:10.015Z,5.88
2023-03-17T05:53:09.997Z,5.74
2023-03-17T05:54:09.964Z,5.57
2023-03-17T05:55:09.940Z,5.49
2023-03-17T05:56:09.923Z,5.34
2023-03-17T05:57:09.898Z,5.14
2023-03-17T05:58:09.885Z,5.04
2023-03-17T05:59:09.865Z,4.94
2023-03-17T06:00:12.373Z,4.76
2023-03-17T06:01:09.795Z,4.69
2023-03-17T06:02:09.853Z,4.65
2023-03-17T06:03:09.753Z,4.67
2023-03-17T06:04:09.714Z,4.57
2023-03-17T06:05:09.710Z,4.58
2023-03-17T06:06:09.652Z,4.70
2023-03-17T06:07:09.636Z,4.70
2023-03-17T06:08:09.604Z,4.70
2023-03-17T06:09:09.582Z,4.47
2023-03-17T06:10:09.561Z,4.47
2023-03-17T06:11:09.541Z,4.42
2023-03-17T06:12:09.516Z,4.26
2023-03-17T06:13:09.487Z,4.19
2023-03-17T06:14:09.446Z,4.08
2023-03-17T06:15:09.432Z,4.01
2023-03-17T06:16:09.559Z,4.00
2023-03-17T06:17:09.375Z,3.94
2023-03-17T06:18:09.371Z,3.94
2023-03-17T06:19:09.339Z,4.00
2023-03-17T06:20:09.324Z,4.00
2023-03-17T06:21:09.287Z,4.06
2023-03-17T06:22:09.269Z,4.40
2023-03-17T06:23:09.226Z,4.52
2023-03-17T06:24:09.193Z,4.62
2023-03-17T06:25:09.172Z,4.83
2023-03-17T06:26:09.143Z,4.98
2023-03-17T06:27:09.216Z,5.19
2023-03-17T06:28:09.092Z,5.43
2023-03-17T06:29:09.085Z,5.68
2023-03-17T06:30:09.038Z,5.78
2023-03-17T06:31:09.083Z,5.95
2023-03-17T06:32:19.727Z,6.06
2023-03-17T06:33:09.226Z,6.09
2023-03-17T06:34:08.943Z,6.10
2023-03-17T06:35:08.912Z,6.10
2023-03-17T06:36:08.991Z,6.13
2023-03-17T06:37:08.862Z,6.28
2023-03-17T06:38:08.832Z,6.13
2023-03-17T06:39:08.811Z,6.33
2023-03-17T06:40:08.784Z,6.43
2023-03-17T06:41:08.760Z,6.40
2023-03-17T06:42:08.751Z,6.50
2023-03-17T06:43:08.712Z,6.38
2023-03-17T06:44:08.680Z,6.56
2023-03-17T06:45:08.660Z,6.66
2023-03-17T06:46:08.729Z,6.80
2023-03-17T06:47:08.614Z,6.94
2023-03-17T06:48:08.587Z,6.98
2023-03-17T06:49:08.555Z,7.07
2023-03-17T06:50:08.518Z,7.23
2023-03-17T06:51:08.503Z,7.20
2023-03-17T06:52:08.479Z,7.34
2023-03-17T06:53:08.472Z,7.40
2023-03-17T06:54:08.424Z,7.49
2023-03-17T06:55:08.407Z,7.67
2023-03-17T06:56:17.230Z,7.63
2023-03-17T06:57:08.348Z,7.78
2023-03-17T06:58:08.326Z,7.89
2023-03-17T06:59:08.297Z,8.00
2023-03-17T07:00:08.275Z,7.89
2023-03-17T07:01:08.253Z,7.84
2023-03-17T07:02:08.316Z,7.84
2023-03-17T07:03:08.213Z,7.87
2023-03-17T07:04:08.210Z,7.89
2023-03-17T07:05:08.151Z,7.99
2023-03-17T07:06:08.165Z,7.99
2023-03-17T07:07:08.102Z,8.14
2023-03-17T07:08:08.115Z,8.33
2023-03-17T07:09:08.058Z,8.51
2023-03-17T07:10:08.019Z,8.60
2023-03-17T07:11:08.011Z,8.62
2023-03-17T07:12:07.980Z,8.55
2023-03-17T07:13:08.044Z,8.63
2023-03-17T07:14:07.957Z,8.65
2023-03-17T07:15:07.904Z,8.58
2023-03-17T07:16:08.012Z,8.57
2023-03-17T07:17:07.873Z,8.66
2023-03-17T07:18:07.818Z,8.75
2023-03-17T07:19:07.821Z,8.93
2023-03-17T07:20:07.784Z,9.21
2023-03-17T07:21:07.750Z,9.30
2023-03-17T07:22:07.721Z,9.40
2023-03-17T07:23:07.705Z,9.32
2023-03-17T07:24:07.681Z,9.43
2023-03-17T07:25:07.698Z,9.56
2023-03-17T07:26:07.624Z,9.70
2023-03-17T07:27:07.615Z,9.75
2023-03-17T07:28:07.578Z,9.83
2023-03-17T07:29:07.551Z,9.73
2023-03-17T07:30:07.543Z,9.75
2023-03-17T07:31:07.524Z,9.73
2023-03-17T07:32:07.475Z,9.86
2023-03-17T07:33:07.486Z,9.89
2023-03-17T07:34:07.433Z,10.09
2023-03-17T07:35:07.439Z,10.18
2023-03-17T07:36:07.447Z,10.17
2023-03-17T07:37:07.379Z,10.37
2023-03-17T07:38:07.353Z,10.66
2023-03-17T07:39:08.067Z,10.98
2023-03-17T07:40:07.406Z,11.21
2023-03-17T07:41:07.254Z,11.28
2023-03-17T07:42:07.253Z,11.56
2023-03-17T07:43:07.202Z,11.70
2023-03-17T07:44:07.224Z,11.87
2023-03-17T07:45:07.158Z,12.27
2023-03-17T07:46:07.247Z,12.52
2023-03-17T07:47:07.114Z,12.95
2023-03-17T07:48:07.127Z,13.14
2023-03-17T07:49:07.091Z,13.38
2023-03-17T07:50:07.046Z,13.74
2023-03-17T07:51:07.046Z,13.63
2023-03-17T07:52:07.018Z,13.80
2023-03-17T07:53:06.969Z,14.35
2023-03-17T07:54:06.954Z,14.65
2023-03-17T07:55:06.925Z,15.23
2023-03-17T07:56:06.951Z,15.30
2023-03-17T07:57:06.911Z,15.59
2023-03-17T07:58:06.940Z,15.89
2023-03-17T07:59:06.864Z,16.07
2023-03-17T08:00:06.852Z,16.16
2023-03-17T08:01:06.823Z,16.27
2023-03-17T08:02:06.900Z,15.68
2023-03-17T08:03:10.798Z,15.64
2023-03-17T08:04:06.775Z,15.59
2023-03-17T08:05:06.704Z,15.88
2023-03-17T08:06:06.711Z,16.03
2023-03-17T08:07:06.665Z,16.26
2023-03-17T08:08:06.851Z,16.95
2023-03-17T08:09:06.635Z,17.51
2023-03-17T08:10:06.607Z,17.14
2023-03-17T08:11:06.572Z,17.07
2023-03-17T08:12:06.570Z,17.30
2023-03-17T08:13:06.542Z,16.89
2023-03-17T08:14:06.529Z,17.03
2023-03-17T08:15:06.494Z,17.30
2023-03-17T08:16:06.639Z,17.79
2023-03-17T08:17:06.589Z,17.62
2023-03-17T08:18:06.444Z,17.66
2023-03-17T08:19:06.411Z,17.78
2023-03-17T08:20:06.414Z,17.48
2023-03-17T08:21:06.383Z,17.48
2023-03-17T08:22:06.361Z,17.82
2023-03-17T08:23:06.410Z,17.84
2023-03-17T08:24:06.367Z,18.24
2023-03-17T08:25:06.372Z,18.39
2023-03-17T08:26:06.287Z,18.44
2023-03-17T08:27:06.271Z,18.68
2023-03-17T08:28:06.253Z,19.08
2023-03-17T08:29:06.283Z,19.06
2023-03-17T08:30:06.259Z,18.79
2023-03-17T08:31:06.352Z,18.67
2023-03-17T08:32:06.185Z,18.42
2023-03-17T08:33:06.249Z,18.80
2023-03-17T08:34:06.132Z,18.82
2023-03-17T08:35:06.379Z,19.32
2023-03-17T08:36:06.117Z,19.25
2023-03-17T08:37:06.110Z,19.35
2023-03-17T08:38:06.066Z,19.21
2023-03-17T08:39:06.041Z,19.18
2023-03-17T08:40:06.063Z,18.86
2023-03-17T08:41:06.015Z,18.03
2023-03-17T08:42:06.002Z,18.18
2023-03-17T08:43:05.982Z,18.28
2023-03-17T08:44:05.974Z,18.17
2023-03-17T08:45:05.938Z,18.29
2023-03-17T08:46:05.983Z,18.54
2023-03-17T08:47:05.902Z,18.74
2023-03-17T08:48:05.899Z,18.37
2023-03-17T08:49:05.882Z,18.55
2023-03-17T08:50:05.861Z,18.92
2023-03-17T08:51:05.836Z,19.18
2023-03-17T08:52:05.828Z,18.65
2023-03-17T08:53:05.804Z,18.39
2023-03-17T08:54:05.800Z,18.77
2023-03-17T08:55:05.777Z,18.80
2023-03-17T08:56:05.762Z,18.92
2023-03-17T08:57:05.745Z,19.31
2023-03-17T08:58:05.733Z,18.80
2023-03-17T08:59:05.708Z,18.21
2023-03-17T09:00:05.693Z,18.42
2023-03-17T09:01:05.714Z,18.52
2023-03-17T09:02:05.679Z,18.73
2023-03-17T09:03:05.640Z,19.25
2023-03-17T09:04:05.655Z,18.92
2023-03-17T09:05:05.606Z,19.21
2023-03-17T09:06:05.601Z,19.38
2023-03-17T09:07:07.673Z,19.23
2023-03-17T09:08:05.689Z,19.48
2023-03-17T09:09:05.542Z,19.66
2023-03-17T09:10:05.541Z,19.57
2023-03-17T09:11:05.528Z,19.69
2023-03-17T09:12:05.510Z,19.72
2023-03-17T09:13:05.522Z,20.06
2023-03-17T09:14:05.491Z,20.42
2023-03-17T09:15:05.539Z,21.11
2023-03-17T09:16:05.542Z,21.46
2023-03-17T09:17:06.049Z,21.95
2023-03-17T09:18:05.421Z,21.64
2023-03-17T09:19:05.396Z,20.71
2023-03-17T09:20:05.416Z,20.53
2023-03-17T09:21:05.679Z,20.02
2023-03-17T09:22:05.343Z,18.92
2023-03-17T09:23:05.326Z,18.13
2023-03-17T09:24:05.317Z,17.50
2023-03-17T09:25:05.300Z,17.17
2023-03-17T09:26:05.368Z,17.28
2023-03-17T09:27:05.294Z,17.55
2023-03-17T09:28:05.294Z,17.99
2023-03-17T09:29:05.235Z,18.34
2023-03-17T09:30:05.222Z,18.36
2023-03-17T09:31:05.337Z,18.70
2023-03-17T09:32:05.207Z,18.95
2023-03-17T09:33:05.249Z,18.95
2023-03-17T09:34:05.172Z,18.65
2023-03-17T09:35:05.138Z,18.29
2023-03-17T09:36:05.203Z,17.36
2023-03-17T09:37:05.262Z,16.86
2023-03-17T09:38:05.103Z,16.62
2023-03-17T09:39:05.103Z,16.77
2023-03-17T09:40:05.074Z,16.92
2023-03-17T09:41:05.072Z,16.81
2023-03-17T09:42:05.031Z,16.53
2023-03-17T09:43:05.026Z,16.37
2023-03-17T09:44:05.037Z,16.25
2023-03-17T09:45:05.027Z,16.35
2023-03-17T09:46:05.002Z,16.26
2023-03-17T09:47:04.960Z,16.30
2023-03-17T09:48:04.960Z,16.26
2023-03-17T09:49:04.929Z,16.52
2023-03-17T09:50:04.909Z,16.68
2023-03-17T09:51:05.001Z,16.55
2023-03-17T09:52:04.893Z,16.59
2023-03-17T09:53:04.880Z,16.53
2023-03-17T09:54:04.831Z,16.34
2023-03-17T09:55:04.890Z,16.04
2023-03-17T09:56:04.798Z,16.00
2023-03-17T09:57:04.781Z,16.11
2023-03-17T09:58:04.773Z,16.04
2023-03-17T09:59:04.761Z,15.85
2023-03-17T10:00:04.773Z,15.89
2023-03-17T10:01:04.752Z,15.88
2023-03-17T10:02:04.818Z,15.93
2023-03-17T10:03:04.678Z,16.11
2023-03-17T10:04:04.671Z,16.30
2023-03-17T10:05:04.665Z,16.38
2023-03-17T10:06:04.640Z,16.48
2023-03-17T10:07:04.675Z,16.44
2023-03-17T10:08:05.437Z,16.48
2023-03-17T10:09:04.580Z,16.83
2023-03-17T10:10:04.601Z,17.17
2023-03-17T10:11:04.541Z,17.55
2023-03-17T10:12:04.546Z,18.12
2023-03-17T10:13:04.523Z,18.34
2023-03-17T10:14:04.533Z,18.21
2023-03-17T10:15:04.488Z,18.21
2023-03-17T10:16:04.533Z,18.28
2023-03-17T10:17:04.462Z,18.31
2023-03-17T10:18:04.434Z,18.21
2023-03-17T10:19:04.414Z,18.27
2023-03-17T10:20:04.446Z,18.24
2023-03-17T10:21:04.374Z,18.21
2023-03-17T10:22:04.369Z,18.22
2023-03-17T10:23:04.345Z,18.28
2023-03-17T10:24:04.339Z,18.59
2023-03-17T10:25:04.395Z,18.50
2023-03-17T10:26:04.312Z,18.33
2023-03-17T10:27:04.287Z,18.29
2023-03-17T10:28:05.913Z,18.64
2023-03-17T10:29:04.320Z,18.39
2023-03-17T10:30:04.259Z,18.28
2023-03-17T10:31:04.544Z,18.18
2023-03-17T10:32:04.501Z,18.04
2023-03-17T10:33:04.240Z,17.97
2023-03-17T10:34:04.191Z,17.79
2023-03-17T10:35:04.169Z,17.73
2023-03-17T10:36:04.212Z,17.63
2023-03-17T10:37:04.164Z,17.71
2023-03-17T10:38:14.061Z,17.89
2023-03-17T10:39:04.108Z,17.94
2023-03-17T10:40:04.107Z,17.92
2023-03-17T10:41:04.092Z,18.03
2023-03-17T10:42:04.078Z,18.18
2023-03-17T10:43:04.064Z,18.27
2023-03-17T10:44:04.049Z,18.22
2023-03-17T10:45:04.031Z,18.25
2023-03-17T10:46:04.244Z,18.39
2023-03-17T10:47:04.075Z,18.39
2023-03-17T10:48:03.998Z,18.52
2023-03-17T10:49:03.976Z,18.34
2023-03-17T10:50:03.968Z,18.37
2023-03-17T10:51:03.952Z,18.34
2023-03-17T10:52:03.947Z,18.68
2023-03-17T10:53:03.926Z,18.68
2023-03-17T10:54:03.948Z,18.80
2023-03-17T10:55:03.902Z,18.98
2023-03-17T10:56:03.888Z,19.08
2023-03-17T10:57:03.865Z,18.95
2023-03-17T10:58:03.873Z,19.17
2023-03-17T10:59:03.840Z,19.39
2023-03-17T11:00:03.833Z,19.48
2023-03-17T11:01:03.859Z,19.73
2023-03-17T11:02:03.819Z,19.69
2023-03-17T11:03:03.798Z,19.68
2023-03-17T11:04:03.913Z,19.66
2023-03-17T11:05:03.793Z,19.76
2023-03-17T11:06:03.761Z,19.70
2023-03-17T11:07:03.764Z,19.63
2023-03-17T11:08:03.749Z,19.65
2023-03-17T11:09:03.722Z,19.75
2023-03-17T11:10:03.722Z,19.88
2023-03-17T11:11:03.702Z,19.86
2023-03-17T11:12:03.701Z,19.79
2023-03-17T11:13:03.678Z,19.43
2023-03-17T11:14:03.672Z,19.14
2023-03-17T11:15:03.680Z,18.84
2023-03-17T11:16:03.693Z,18.72
2023-03-17T11:17:03.642Z,18.59
2023-03-17T11:18:03.631Z,18.84
2023-03-17T11:19:03.611Z,18.95
2023-03-17T11:20:03.602Z,19.05
2023-03-17T11:21:03.611Z,19.17
2023-03-17T11:22:03.573Z,19.18
2023-03-17T11:23:03.581Z,19.23
2023-03-17T11:24:03.563Z,19.28
2023-03-17T11:25:03.594Z,19.11
2023-03-17T11:26:03.535Z,19.06
2023-03-17T11:27:03.581Z,19.06
2023-03-17T11:28:03.511Z,18.87
2023-03-17T11:29:03.484Z,18.68
2023-03-17T11:30:03.478Z,18.61
2023-03-17T11:31:03.460Z,18.54
2023-03-17T11:32:03.494Z,18.55
2023-03-17T11:33:03.522Z,18.73
2023-03-17T11:34:03.427Z,19.06
2023-03-17T11:35:03.416Z,18.95
2023-03-17T11:36:03.523Z,19.08
2023-03-17T11:37:03.394Z,19.05
2023-03-17T11:38:03.368Z,19.14
2023-03-17T11:39:03.378Z,19.18
2023-03-17T11:40:03.353Z,19.11
2023-03-17T11:41:03.349Z,19.14
2023-03-17T11:42:03.329Z,19.25
2023-03-17T11:43:03.305Z,19.40
2023-03-17T11:44:03.307Z,19.39
2023-03-17T11:45:03.281Z,19.51
2023-03-17T11:46:03.275Z,19.51
2023-03-17T11:47:03.261Z,19.32
2023-03-17T11:48:03.279Z,18.98
2023-03-17T11:49:03.239Z,18.79
2023-03-17T11:50:03.230Z,18.70
2023-03-17T11:51:03.209Z,18.91
2023-03-17T11:52:03.200Z,18.97
2023-03-17T11:53:03.240Z,19.23
2023-03-17T11:54:03.177Z,19.20
2023-03-17T11:55:03.170Z,19.28
2023-03-17T11:56:03.152Z,19.42
2023-03-17T11:57:03.139Z,19.61
2023-03-17T11:58:03.113Z,19.88
2023-03-17T11:59:03.109Z,20.00
2023-03-17T12:00:03.097Z,20.24
2023-03-17T12:01:03.086Z,20.51
2023-03-17T12:02:03.073Z,20.66
2023-03-17T12:03:03.108Z,20.87
2023-03-17T12:04:03.205Z,20.91
2023-03-17T12:05:03.042Z,20.98
2023-03-17T12:06:03.032Z,20.95
2023-03-17T12:07:03.013Z,20.68
2023-03-17T12:08:03.010Z,20.76
2023-03-17T12:09:02.993Z,20.84
2023-03-17T12:10:02.986Z,20.95
2023-03-17T12:11:02.988Z,20.83
2023-03-17T12:12:02.968Z,20.98
2023-03-17T12:13:02.949Z,20.96
2023-03-17T12:14:02.938Z,20.91
2023-03-17T12:15:02.962Z,20.98
2023-03-17T12:16:02.980Z,20.69
2023-03-17T12:17:02.937Z,20.56
2023-03-17T12:18:02.902Z,20.10
2023-03-17T12:19:02.889Z,19.76
2023-03-17T12:20:02.884Z,19.60
2023-03-17T12:21:02.875Z,19.51
2023-03-17T12:22:02.857Z,19.39
2023-03-17T12:23:02.908Z,18.90
2023-03-17T12:24:02.842Z,18.64
2023-03-17T12:25:02.835Z,18.33
2023-03-17T12:26:02.833Z,18.34
2023-03-17T12:27:02.810Z,18.61
2023-03-17T12:28:02.792Z,18.82
2023-03-17T12:29:02.783Z,19.21
2023-03-17T12:30:02.810Z,19.18
2023-03-17T12:31:02.813Z,19.28
2023-03-17T12:32:02.753Z,19.17
2023-03-17T12:33:02.833Z,19.29
2023-03-17T12:34:02.721Z,19.38
2023-03-17T12:35:02.708Z,19.46
2023-03-17T12:36:02.737Z,19.53
2023-03-17T12:37:02.692Z,19.57
2023-03-17T12:38:02.675Z,19.55
2023-03-17T12:39:02.661Z,19.20
2023-03-17T12:40:02.654Z,18.86
2023-03-17T12:41:02.636Z,18.86
2023-03-17T12:42:02.616Z,18.79
2023-03-17T12:43:02.653Z,18.67
2023-03-17T12:44:02.608Z,18.47
2023-03-17T12:45:02.608Z,18.54
2023-03-17T12:46:02.626Z,18.54
2023-03-17T12:47:02.563Z,18.29
2023-03-17T12:48:02.567Z,18.24
2023-03-17T12:49:02.558Z,18.24
2023-03-17T12:50:02.539Z,18.36
2023-03-17T12:51:02.511Z,18.50
2023-03-17T12:52:02.508Z,18.58
2023-03-17T12:53:02.486Z,18.44
2023-03-17T12:54:02.473Z,18.42
2023-03-17T12:55:02.463Z,18.43
2023-03-17T12:56:02.440Z,18.47
2023-03-17T12:57:02.467Z,18.39
2023-03-17T12:58:02.422Z,18.27
2023-03-17T12:59:02.399Z,18.28
2023-03-17T13:00:02.409Z,18.13
2023-03-17T13:01:02.377Z,18.24
2023-03-17T13:02:02.423Z,18.28
2023-03-17T13:03:02.379Z,18.43
2023-03-17T13:04:02.336Z,18.64
2023-03-17T13:05:02.322Z,18.44
2023-03-17T13:06:02.318Z,18.50
2023-03-17T13:07:02.303Z,18.57